sensor_id;sensor_type;location;lat;lon;timestamp;temperature;humidity
9271;DHT22;4673;53.458;9.940;2022-08-07T00:01:20;10.80;94.90
9271;DHT22;4673;53.458;9.940;2022-08-07T00:03:46;10.80;95.10
9271;DHT22;4673;53.458;9.940;2022-08-07T00:06:12;10.80;95.20
9271;DHT22;4673;53.458;9.940;2022-08-07T00:08:38;10.70;95.30
9271;DHT22;4673;53.458;9.940;2022-08-07T00:11:04;10.70;95.40
9271;DHT22;4673;53.458;9.940;2022-08-07T00:13:31;10.70;95.50
9271;DHT22;4673;53.458;9.940;2022-08-07T00:15:57;10.60;95.50
9271;DHT22;4673;53.458;9.940;2022-08-07T00:18:27;10.60;95.70
9271;DHT22;4673;53.458;9.940;2022-08-07T00:20:58;10.60;95.80
9271;DHT22;4673;53.458;9.940;2022-08-07T00:23:25;10.60;95.90
9271;DHT22;4673;53.458;9.940;2022-08-07T00:25:51;10.50;96.10
9271;DHT22;4673;53.458;9.940;2022-08-07T00:28:16;10.50;96.20
9271;DHT22;4673;53.458;9.940;2022-08-07T00:30:42;10.50;96.30
9271;DHT22;4673;53.458;9.940;2022-08-07T00:33:08;10.50;96.50
9271;DHT22;4673;53.458;9.940;2022-08-07T00:35:34;10.50;96.60
9271;DHT22;4673;53.458;9.940;2022-08-07T00:38:00;10.50;96.80
9271;DHT22;4673;53.458;9.940;2022-08-07T00:40:26;10.50;96.90
9271;DHT22;4673;53.458;9.940;2022-08-07T00:42:52;10.50;97.00
9271;DHT22;4673;53.458;9.940;2022-08-07T00:45:18;10.50;97.10
9271;DHT22;4673;53.458;9.940;2022-08-07T00:47:46;10.50;97.20
9271;DHT22;4673;53.458;9.940;2022-08-07T00:50:12;10.40;97.20
9271;DHT22;4673;53.458;9.940;2022-08-07T00:52:38;10.50;97.50
9271;DHT22;4673;53.458;9.940;2022-08-07T00:55:04;10.50;97.60
9271;DHT22;4673;53.458;9.940;2022-08-07T00:57:29;10.40;97.50
9271;DHT22;4673;53.458;9.940;2022-08-07T00:59:55;10.40;97.70
9271;DHT22;4673;53.458;9.940;2022-08-07T01:02:22;10.40;97.80
9271;DHT22;4673;53.458;9.940;2022-08-07T01:04:48;10.40;97.90
9271;DHT22;4673;53.458;9.940;2022-08-07T01:07:15;10.40;98.00
9271;DHT22;4673;53.458;9.940;2022-08-07T01:09:40;10.40;98.10
9271;DHT22;4673;53.458;9.940;2022-08-07T01:12:06;10.40;98.30
9271;DHT22;4673;53.458;9.940;2022-08-07T01:14:32;10.40;98.20
9271;DHT22;4673;53.458;9.940;2022-08-07T01:16:58;10.30;98.30
9271;DHT22;4673;53.458;9.940;2022-08-07T01:19:25;10.30;98.40
9271;DHT22;4673;53.458;9.940;2022-08-07T01:21:52;10.30;98.50
9271;DHT22;4673;53.458;9.940;2022-08-07T01:24:18;10.30;98.60
9271;DHT22;4673;53.458;9.940;2022-08-07T01:26:45;10.30;98.70
9271;DHT22;4673;53.458;9.940;2022-08-07T01:29:12;10.20;98.60
9271;DHT22;4673;53.458;9.940;2022-08-07T01:31:38;10.20;98.70
9271;DHT22;4673;53.458;9.940;2022-08-07T01:34:04;10.20;98.80
9271;DHT22;4673;53.458;9.940;2022-08-07T01:36:31;10.20;98.90
9271;DHT22;4673;53.458;9.940;2022-08-07T01:38:57;10.20;98.90
9271;DHT22;4673;53.458;9.940;2022-08-07T01:41:23;10.20;99.00
9271;DHT22;4673;53.458;9.940;2022-08-07T01:43:50;10.20;99.00
9271;DHT22;4673;53.458;9.940;2022-08-07T01:46:18;10.10;99.00
9271;DHT22;4673;53.458;9.940;2022-08-07T01:48:46;10.10;99.10
9271;DHT22;4673;53.458;9.940;2022-08-07T01:51:19;10.10;99.20
9271;DHT22;4673;53.458;9.940;2022-08-07T01:53:48;10.10;99.40
9271;DHT22;4673;53.458;9.940;2022-08-07T01:56:26;10.10;99.60
9271;DHT22;4673;53.458;9.940;2022-08-07T01:59:05;10.20;99.60
9271;DHT22;4673;53.458;9.940;2022-08-07T02:01:35;10.20;99.70
9271;DHT22;4673;53.458;9.940;2022-08-07T02:04:12;10.20;99.70
9271;DHT22;4673;53.458;9.940;2022-08-07T02:06:40;10.10;99.70
9271;DHT22;4673;53.458;9.940;2022-08-07T02:09:10;10.10;99.80
9271;DHT22;4673;53.458;9.940;2022-08-07T02:11:38;10.10;99.80
9271;DHT22;4673;53.458;9.940;2022-08-07T02:14:06;10.00;99.70
9271;DHT22;4673;53.458;9.940;2022-08-07T02:16:35;9.90;99.70
9271;DHT22;4673;53.458;9.940;2022-08-07T02:19:05;9.90;99.70
9271;DHT22;4673;53.458;9.940;2022-08-07T02:21:31;9.90;99.90
9271;DHT22;4673;53.458;9.940;2022-08-07T02:24:00;9.80;99.80
9271;DHT22;4673;53.458;9.940;2022-08-07T02:26:27;9.80;99.90
9271;DHT22;4673;53.458;9.940;2022-08-07T02:28:55;9.90;99.90
9271;DHT22;4673;53.458;9.940;2022-08-07T02:31:22;9.90;99.90
9271;DHT22;4673;53.458;9.940;2022-08-07T02:33:49;9.80;99.90
9271;DHT22;4673;53.458;9.940;2022-08-07T02:36:17;9.80;99.90
9271;DHT22;4673;53.458;9.940;2022-08-07T02:38:44;9.80;99.90
9271;DHT22;4673;53.458;9.940;2022-08-07T02:41:11;9.80;99.90
9271;DHT22;4673;53.458;9.940;2022-08-07T02:43:40;9.80;99.90
9271;DHT22;4673;53.458;9.940;2022-08-07T02:46:08;9.70;99.90
9271;DHT22;4673;53.458;9.940;2022-08-07T02:48:36;9.80;99.90
9271;DHT22;4673;53.458;9.940;2022-08-07T02:51:06;9.80;99.90
9271;DHT22;4673;53.458;9.940;2022-08-07T02:53:34;9.80;99.90
9271;DHT22;4673;53.458;9.940;2022-08-07T02:56:01;9.80;99.90
9271;DHT22;4673;53.458;9.940;2022-08-07T02:58:29;9.70;99.90
9271;DHT22;4673;53.458;9.940;2022-08-07T03:00:58;9.70;99.90
9271;DHT22;4673;53.458;9.940;2022-08-07T03:03:27;9.70;99.90
9271;DHT22;4673;53.458;9.940;2022-08-07T03:05:55;9.70;99.90
9271;DHT22;4673;53.458;9.940;2022-08-07T03:08:21;9.70;99.90
9271;DHT22;4673;53.458;9.940;2022-08-07T03:10:47;9.70;99.90
9271;DHT22;4673;53.458;9.940;2022-08-07T03:13:17;9.70;99.90
9271;DHT22;4673;53.458;9.940;2022-08-07T03:15:44;9.70;99.90
9271;DHT22;4673;53.458;9.940;2022-08-07T03:18:10;9.70;99.90
9271;DHT22;4673;53.458;9.940;2022-08-07T03:20:38;9.60;99.90
9271;DHT22;4673;53.458;9.940;2022-08-07T03:23:04;9.60;99.90
9271;DHT22;4673;53.458;9.940;2022-08-07T03:25:32;9.60;99.90
9271;DHT22;4673;53.458;9.940;2022-08-07T03:28:00;9.60;99.90
9271;DHT22;4673;53.458;9.940;2022-08-07T03:30:27;9.60;99.90
9271;DHT22;4673;53.458;9.940;2022-08-07T03:32:53;9.70;99.90
9271;DHT22;4673;53.458;9.940;2022-08-07T03:35:25;9.60;99.90
9271;DHT22;4673;53.458;9.940;2022-08-07T03:38:03;9.60;99.90
9271;DHT22;4673;53.458;9.940;2022-08-07T03:40:29;9.60;99.90
9271;DHT22;4673;53.458;9.940;2022-08-07T03:42:56;9.60;99.90
9271;DHT22;4673;53.458;9.940;2022-08-07T03:45:24;9.60;99.90
9271;DHT22;4673;53.458;9.940;2022-08-07T03:47:50;9.60;99.90
9271;DHT22;4673;53.458;9.940;2022-08-07T03:50:16;9.60;99.90
9271;DHT22;4673;53.458;9.940;2022-08-07T03:52:44;9.60;99.90
9271;DHT22;4673;53.458;9.940;2022-08-07T03:55:11;9.60;99.90
9271;DHT22;4673;53.458;9.940;2022-08-07T03:57:37;9.60;99.90
9271;DHT22;4673;53.458;9.940;2022-08-07T04:00:04;9.60;99.90
9271;DHT22;4673;53.458;9.940;2022-08-07T04:02:30;9.60;99.90
9271;DHT22;4673;53.458;9.940;2022-08-07T04:04:56;9.60;99.90
9271;DHT22;4673;53.458;9.940;2022-08-07T04:07:22;9.60;99.90
9271;DHT22;4673;53.458;9.940;2022-08-07T04:09:49;9.70;99.90
9271;DHT22;4673;53.458;9.940;2022-08-07T04:12:16;9.70;99.90
9271;DHT22;4673;53.458;9.940;2022-08-07T04:14:42;9.80;99.90
9271;DHT22;4673;53.458;9.940;2022-08-07T04:17:08;9.90;99.90
9271;DHT22;4673;53.458;9.940;2022-08-07T04:19:34;9.90;99.90
9271;DHT22;4673;53.458;9.940;2022-08-07T04:22:01;9.90;99.90
9271;DHT22;4673;53.458;9.940;2022-08-07T04:24:27;10.00;99.90
9271;DHT22;4673;53.458;9.940;2022-08-07T04:26:54;10.00;99.90
9271;DHT22;4673;53.458;9.940;2022-08-07T04:29:20;10.00;99.90
9271;DHT22;4673;53.458;9.940;2022-08-07T04:31:46;10.00;99.90
9271;DHT22;4673;53.458;9.940;2022-08-07T04:34:12;10.10;99.90
9271;DHT22;4673;53.458;9.940;2022-08-07T04:36:39;10.10;99.90
9271;DHT22;4673;53.458;9.940;2022-08-07T04:39:04;10.20;99.90
9271;DHT22;4673;53.458;9.940;2022-08-07T04:41:30;10.30;99.90
9271;DHT22;4673;53.458;9.940;2022-08-07T04:43:56;10.50;99.90
9271;DHT22;4673;53.458;9.940;2022-08-07T04:46:37;10.60;99.90
9271;DHT22;4673;53.458;9.940;2022-08-07T04:49:33;10.70;99.90
9271;DHT22;4673;53.458;9.940;2022-08-07T04:55:41;11.50;99.90
9271;DHT22;4673;53.458;9.940;2022-08-07T05:03:40;12.50;99.90
9271;DHT22;4673;53.458;9.940;2022-08-07T05:06:17;12.70;99.90
9271;DHT22;4673;53.458;9.940;2022-08-07T05:11:29;12.70;99.90
9271;DHT22;4673;53.458;9.940;2022-08-07T05:14:14;12.70;99.90
9271;DHT22;4673;53.458;9.940;2022-08-07T05:16:44;12.70;99.90
9271;DHT22;4673;53.458;9.940;2022-08-07T05:19:14;12.60;99.90
9271;DHT22;4673;53.458;9.940;2022-08-07T05:21:46;12.60;99.90
9271;DHT22;4673;53.458;9.940;2022-08-07T05:24:14;12.60;99.90
9271;DHT22;4673;53.458;9.940;2022-08-07T05:26:42;12.70;99.90
9271;DHT22;4673;53.458;9.940;2022-08-07T05:29:09;12.80;99.90
9271;DHT22;4673;53.458;9.940;2022-08-07T05:31:38;13.00;99.90
9271;DHT22;4673;53.458;9.940;2022-08-07T05:34:07;13.40;99.90
9271;DHT22;4673;53.458;9.940;2022-08-07T05:36:36;13.70;99.90
9271;DHT22;4673;53.458;9.940;2022-08-07T05:39:03;14.00;99.90
9271;DHT22;4673;53.458;9.940;2022-08-07T05:41:30;14.20;99.90
9271;DHT22;4673;53.458;9.940;2022-08-07T05:43:56;14.40;99.90
9271;DHT22;4673;53.458;9.940;2022-08-07T05:46:23;14.60;99.20
9271;DHT22;4673;53.458;9.940;2022-08-07T05:48:51;14.70;97.30
9271;DHT22;4673;53.458;9.940;2022-08-07T05:51:18;14.70;95.40
9271;DHT22;4673;53.458;9.940;2022-08-07T05:53:44;14.70;94.20
9271;DHT22;4673;53.458;9.940;2022-08-07T05:56:10;14.80;93.20
9271;DHT22;4673;53.458;9.940;2022-08-07T05:58:38;15.10;92.50
9271;DHT22;4673;53.458;9.940;2022-08-07T06:01:09;15.50;91.10
9271;DHT22;4673;53.458;9.940;2022-08-07T06:03:37;16.10;88.40
9271;DHT22;4673;53.458;9.940;2022-08-07T06:06:03;16.60;86.00
9271;DHT22;4673;53.458;9.940;2022-08-07T06:08:30;17.30;82.60
9271;DHT22;4673;53.458;9.940;2022-08-07T06:10:56;18.10;80.10
9271;DHT22;4673;53.458;9.940;2022-08-07T06:13:22;19.10;77.90
9271;DHT22;4673;53.458;9.940;2022-08-07T06:15:48;20.00;70.90
9271;DHT22;4673;53.458;9.940;2022-08-07T06:18:15;20.40;65.30
9271;DHT22;4673;53.458;9.940;2022-08-07T06:20:43;20.30;63.50
9271;DHT22;4673;53.458;9.940;2022-08-07T06:23:09;20.10;61.10
9271;DHT22;4673;53.458;9.940;2022-08-07T06:25:35;19.50;61.40
9271;DHT22;4673;53.458;9.940;2022-08-07T06:28:06;19.10;62.10
9271;DHT22;4673;53.458;9.940;2022-08-07T06:30:35;18.70;62.70
9271;DHT22;4673;53.458;9.940;2022-08-07T06:33:01;18.40;63.30
9271;DHT22;4673;53.458;9.940;2022-08-07T06:35:27;18.00;64.10
9271;DHT22;4673;53.458;9.940;2022-08-07T06:37:52;18.00;64.10
9271;DHT22;4673;53.458;9.940;2022-08-07T06:40:18;17.60;64.80
9271;DHT22;4673;53.458;9.940;2022-08-07T06:42:46;17.40;65.80
9271;DHT22;4673;53.458;9.940;2022-08-07T06:45:15;17.10;66.70
9271;DHT22;4673;53.458;9.940;2022-08-07T06:47:41;17.10;66.90
9271;DHT22;4673;53.458;9.940;2022-08-07T06:50:08;17.10;67.20
9271;DHT22;4673;53.458;9.940;2022-08-07T06:52:36;17.10;67.90
9271;DHT22;4673;53.458;9.940;2022-08-07T06:55:12;17.00;68.60
9271;DHT22;4673;53.458;9.940;2022-08-07T06:57:40;16.80;69.10
9271;DHT22;4673;53.458;9.940;2022-08-07T07:00:06;16.80;68.70
9271;DHT22;4673;53.458;9.940;2022-08-07T07:02:34;16.80;68.00
9271;DHT22;4673;53.458;9.940;2022-08-07T07:05:01;16.80;67.70
9271;DHT22;4673;53.458;9.940;2022-08-07T07:07:27;16.80;68.00
9271;DHT22;4673;53.458;9.940;2022-08-07T07:09:52;16.80;67.60
9271;DHT22;4673;53.458;9.940;2022-08-07T07:19:58;16.90;66.20
9271;DHT22;4673;53.458;9.940;2022-08-07T07:22:25;16.90;66.10
9271;DHT22;4673;53.458;9.940;2022-08-07T07:24:53;16.90;65.70
9271;DHT22;4673;53.458;9.940;2022-08-07T07:27:23;17.00;66.20
9271;DHT22;4673;53.458;9.940;2022-08-07T07:29:54;17.10;67.00
9271;DHT22;4673;53.458;9.940;2022-08-07T07:32:23;17.10;65.80
9271;DHT22;4673;53.458;9.940;2022-08-07T07:34:52;17.10;65.30
9271;DHT22;4673;53.458;9.940;2022-08-07T07:37:22;17.20;64.80
9271;DHT22;4673;53.458;9.940;2022-08-07T07:39:50;17.20;65.10
9271;DHT22;4673;53.458;9.940;2022-08-07T07:42:19;17.30;65.20
9271;DHT22;4673;53.458;9.940;2022-08-07T07:44:47;17.30;63.00
9271;DHT22;4673;53.458;9.940;2022-08-07T07:47:14;17.20;62.90
9271;DHT22;4673;53.458;9.940;2022-08-07T07:49:41;17.30;63.10
9271;DHT22;4673;53.458;9.940;2022-08-07T07:52:09;17.30;61.90
9271;DHT22;4673;53.458;9.940;2022-08-07T07:54:35;17.40;63.10
9271;DHT22;4673;53.458;9.940;2022-08-07T07:57:02;17.40;63.80
9271;DHT22;4673;53.458;9.940;2022-08-07T07:59:29;17.50;63.50
9271;DHT22;4673;53.458;9.940;2022-08-07T08:01:55;17.50;63.20
9271;DHT22;4673;53.458;9.940;2022-08-07T08:04:25;17.60;62.70
9271;DHT22;4673;53.458;9.940;2022-08-07T08:06:52;17.70;61.90
9271;DHT22;4673;53.458;9.940;2022-08-07T08:09:21;17.70;60.50
9271;DHT22;4673;53.458;9.940;2022-08-07T08:11:49;17.70;61.10
9271;DHT22;4673;53.458;9.940;2022-08-07T08:14:15;17.80;61.10
9271;DHT22;4673;53.458;9.940;2022-08-07T08:16:42;17.90;58.60
9271;DHT22;4673;53.458;9.940;2022-08-07T08:19:12;18.00;58.70
9271;DHT22;4673;53.458;9.940;2022-08-07T08:21:40;18.10;59.00
9271;DHT22;4673;53.458;9.940;2022-08-07T08:24:31;18.10;56.10
9271;DHT22;4673;53.458;9.940;2022-08-07T08:27:21;18.10;54.80
9271;DHT22;4673;53.458;9.940;2022-08-07T08:29:56;18.00;53.60
9271;DHT22;4673;53.458;9.940;2022-08-07T08:32:26;18.10;56.60
9271;DHT22;4673;53.458;9.940;2022-08-07T08:34:56;18.10;51.30
9271;DHT22;4673;53.458;9.940;2022-08-07T08:37:25;18.20;51.90
9271;DHT22;4673;53.458;9.940;2022-08-07T08:39:52;18.20;53.00
9271;DHT22;4673;53.458;9.940;2022-08-07T08:42:44;18.30;52.90
9271;DHT22;4673;53.458;9.940;2022-08-07T08:45:35;18.40;52.40
9271;DHT22;4673;53.458;9.940;2022-08-07T08:48:26;18.50;54.50
9271;DHT22;4673;53.458;9.940;2022-08-07T08:51:01;18.70;52.30
9271;DHT22;4673;53.458;9.940;2022-08-07T08:53:46;18.90;52.80
9271;DHT22;4673;53.458;9.940;2022-08-07T08:56:29;18.80;51.40
9271;DHT22;4673;53.458;9.940;2022-08-07T09:05:04;18.80;52.10
9271;DHT22;4673;53.458;9.940;2022-08-07T09:07:46;18.90;52.70
9271;DHT22;4673;53.458;9.940;2022-08-07T09:10:16;19.00;52.10
9271;DHT22;4673;53.458;9.940;2022-08-07T09:16:25;19.40;53.50
9271;DHT22;4673;53.458;9.940;2022-08-07T09:21:43;19.90;50.80
9271;DHT22;4673;53.458;9.940;2022-08-07T09:24:27;20.20;50.70
9271;DHT22;4673;53.458;9.940;2022-08-07T09:30:08;20.50;47.00
9271;DHT22;4673;53.458;9.940;2022-08-07T09:32:59;20.30;45.80
9271;DHT22;4673;53.458;9.940;2022-08-07T09:35:49;20.30;46.50
9271;DHT22;4673;53.458;9.940;2022-08-07T09:38:30;20.40;46.30
9271;DHT22;4673;53.458;9.940;2022-08-07T09:44:27;20.80;47.30
9271;DHT22;4673;53.458;9.940;2022-08-07T09:53:03;20.50;45.60
9271;DHT22;4673;53.458;9.940;2022-08-07T09:58:23;20.70;46.60
9271;DHT22;4673;53.458;9.940;2022-08-07T10:23:45;22.50;38.80
9271;DHT22;4673;53.458;9.940;2022-08-07T10:28:57;22.80;35.10
9271;DHT22;4673;53.458;9.940;2022-08-07T10:35:02;22.50;36.80
9271;DHT22;4673;53.458;9.940;2022-08-07T10:37:49;22.30;36.00
9271;DHT22;4673;53.458;9.940;2022-08-07T10:43:14;21.00;38.10
9271;DHT22;4673;53.458;9.940;2022-08-07T10:45:47;20.90;40.20
9271;DHT22;4673;53.458;9.940;2022-08-07T10:51:15;21.10;39.90
9271;DHT22;4673;53.458;9.940;2022-08-07T10:53:49;21.40;39.00
9271;DHT22;4673;53.458;9.940;2022-08-07T10:56:45;21.30;37.40
9271;DHT22;4673;53.458;9.940;2022-08-07T11:07:44;22.20;38.40
9271;DHT22;4673;53.458;9.940;2022-08-07T11:10:18;22.30;37.20
9271;DHT22;4673;53.458;9.940;2022-08-07T11:12:55;22.30;35.60
9271;DHT22;4673;53.458;9.940;2022-08-07T11:15:24;22.20;36.40
9271;DHT22;4673;53.458;9.940;2022-08-07T11:18:03;22.10;36.10
9271;DHT22;4673;53.458;9.940;2022-08-07T11:20:47;22.20;37.00
9271;DHT22;4673;53.458;9.940;2022-08-07T11:23:25;22.30;36.40
9271;DHT22;4673;53.458;9.940;2022-08-07T11:26:24;22.00;34.70
9271;DHT22;4673;53.458;9.940;2022-08-07T11:29:18;21.60;35.70
9271;DHT22;4673;53.458;9.940;2022-08-07T11:32:11;21.70;37.20
9271;DHT22;4673;53.458;9.940;2022-08-07T11:34:49;22.00;36.30
9271;DHT22;4673;53.458;9.940;2022-08-07T11:54:57;22.00;35.10
9271;DHT22;4673;53.458;9.940;2022-08-07T11:57:43;21.70;35.40
9271;DHT22;4673;53.458;9.940;2022-08-07T12:00:16;21.50;37.50
9271;DHT22;4673;53.458;9.940;2022-08-07T12:05:42;22.10;35.60
9271;DHT22;4673;53.458;9.940;2022-08-07T12:08:29;22.60;32.20
9271;DHT22;4673;53.458;9.940;2022-08-07T12:11:10;22.90;31.30
9271;DHT22;4673;53.458;9.940;2022-08-07T12:13:42;23.20;32.40
9271;DHT22;4673;53.458;9.940;2022-08-07T12:16:35;23.50;31.20
9271;DHT22;4673;53.458;9.940;2022-08-07T12:24:46;24.20;28.20
9271;DHT22;4673;53.458;9.940;2022-08-07T12:27:38;24.60;26.60
9271;DHT22;4673;53.458;9.940;2022-08-07T12:30:06;24.40;25.10
9271;DHT22;4673;53.458;9.940;2022-08-07T12:32:53;24.00;27.30
9271;DHT22;4673;53.458;9.940;2022-08-07T12:35:23;23.80;27.40
9271;DHT22;4673;53.458;9.940;2022-08-07T12:37:50;23.60;27.80
9271;DHT22;4673;53.458;9.940;2022-08-07T12:40:21;23.10;28.00
9271;DHT22;4673;53.458;9.940;2022-08-07T12:42:51;22.70;28.70
9271;DHT22;4673;53.458;9.940;2022-08-07T12:45:25;22.80;30.50
9271;DHT22;4673;53.458;9.940;2022-08-07T12:48:14;22.70;29.50
9271;DHT22;4673;53.458;9.940;2022-08-07T12:50:52;22.60;32.00
9271;DHT22;4673;53.458;9.940;2022-08-07T12:53:44;22.80;31.60
9271;DHT22;4673;53.458;9.940;2022-08-07T12:58:52;22.50;33.40
9271;DHT22;4673;53.458;9.940;2022-08-07T13:09:08;21.60;38.50
9271;DHT22;4673;53.458;9.940;2022-08-07T13:14:35;22.40;32.10
9271;DHT22;4673;53.458;9.940;2022-08-07T13:17:19;22.20;34.20
9271;DHT22;4673;53.458;9.940;2022-08-07T13:22:35;21.90;34.20
9271;DHT22;4673;53.458;9.940;2022-08-07T13:25:09;22.00;36.70
9271;DHT22;4673;53.458;9.940;2022-08-07T13:30:09;21.70;32.40
9271;DHT22;4673;53.458;9.940;2022-08-07T13:32:43;21.80;34.40
9271;DHT22;4673;53.458;9.940;2022-08-07T13:40:50;21.20;34.80
9271;DHT22;4673;53.458;9.940;2022-08-07T13:43:22;21.00;36.40
9271;DHT22;4673;53.458;9.940;2022-08-07T13:45:59;20.80;37.70
9271;DHT22;4673;53.458;9.940;2022-08-07T13:48:28;20.80;38.10
9271;DHT22;4673;53.458;9.940;2022-08-07T13:50:55;20.80;38.80
9271;DHT22;4673;53.458;9.940;2022-08-07T13:53:27;20.80;38.40
9271;DHT22;4673;53.458;9.940;2022-08-07T13:55:55;20.90;38.60
9271;DHT22;4673;53.458;9.940;2022-08-07T13:58:24;21.10;38.70
9271;DHT22;4673;53.458;9.940;2022-08-07T14:01:12;21.30;37.10
9271;DHT22;4673;53.458;9.940;2022-08-07T14:03:40;21.40;36.80
9271;DHT22;4673;53.458;9.940;2022-08-07T14:06:08;21.30;36.40
9271;DHT22;4673;53.458;9.940;2022-08-07T14:08:46;21.40;37.10
9271;DHT22;4673;53.458;9.940;2022-08-07T14:11:14;21.50;37.50
9271;DHT22;4673;53.458;9.940;2022-08-07T14:13:41;21.60;35.40
9271;DHT22;4673;53.458;9.940;2022-08-07T14:16:12;21.60;35.20
9271;DHT22;4673;53.458;9.940;2022-08-07T14:18:47;21.70;36.40
9271;DHT22;4673;53.458;9.940;2022-08-07T14:21:19;21.50;35.20
9271;DHT22;4673;53.458;9.940;2022-08-07T14:24:05;21.40;35.50
9271;DHT22;4673;53.458;9.940;2022-08-07T14:26:48;21.60;35.10
9271;DHT22;4673;53.458;9.940;2022-08-07T14:29:19;21.70;35.10
9271;DHT22;4673;53.458;9.940;2022-08-07T14:31:46;22.00;33.60
9271;DHT22;4673;53.458;9.940;2022-08-07T14:34:14;22.10;33.60
9271;DHT22;4673;53.458;9.940;2022-08-07T14:36:40;22.40;32.10
9271;DHT22;4673;53.458;9.940;2022-08-07T14:39:07;22.30;31.70
9271;DHT22;4673;53.458;9.940;2022-08-07T14:41:35;22.20;32.00
9271;DHT22;4673;53.458;9.940;2022-08-07T14:44:08;22.00;31.20
9271;DHT22;4673;53.458;9.940;2022-08-07T14:46:35;22.00;33.60
9271;DHT22;4673;53.458;9.940;2022-08-07T14:49:02;21.90;34.00
9271;DHT22;4673;53.458;9.940;2022-08-07T14:51:29;21.80;33.40
9271;DHT22;4673;53.458;9.940;2022-08-07T14:53:57;21.90;33.50
9271;DHT22;4673;53.458;9.940;2022-08-07T14:56:29;21.80;35.10
9271;DHT22;4673;53.458;9.940;2022-08-07T14:59:03;21.90;34.20
9271;DHT22;4673;53.458;9.940;2022-08-07T15:01:34;22.10;34.40
9271;DHT22;4673;53.458;9.940;2022-08-07T15:04:02;22.20;33.40
9271;DHT22;4673;53.458;9.940;2022-08-07T15:06:33;22.30;33.20
9271;DHT22;4673;53.458;9.940;2022-08-07T15:09:12;22.30;33.30
9271;DHT22;4673;53.458;9.940;2022-08-07T15:11:41;22.30;32.50
9271;DHT22;4673;53.458;9.940;2022-08-07T15:14:13;22.20;32.40
9271;DHT22;4673;53.458;9.940;2022-08-07T15:16:43;22.20;32.70
9271;DHT22;4673;53.458;9.940;2022-08-07T15:19:15;22.10;32.70
9271;DHT22;4673;53.458;9.940;2022-08-07T15:21:44;22.10;31.40
9271;DHT22;4673;53.458;9.940;2022-08-07T15:24:19;21.90;32.70
9271;DHT22;4673;53.458;9.940;2022-08-07T15:26:50;21.60;32.60
9271;DHT22;4673;53.458;9.940;2022-08-07T15:29:20;21.50;33.60
9271;DHT22;4673;53.458;9.940;2022-08-07T15:31:48;21.50;34.20
9271;DHT22;4673;53.458;9.940;2022-08-07T15:34:16;21.50;34.20
9271;DHT22;4673;53.458;9.940;2022-08-07T15:36:44;21.60;35.60
9271;DHT22;4673;53.458;9.940;2022-08-07T15:39:11;21.80;34.70
9271;DHT22;4673;53.458;9.940;2022-08-07T15:41:59;22.00;34.40
9271;DHT22;4673;53.458;9.940;2022-08-07T15:44:29;21.90;32.80
9271;DHT22;4673;53.458;9.940;2022-08-07T15:47:08;21.90;33.10
9271;DHT22;4673;53.458;9.940;2022-08-07T15:49:36;21.70;33.10
9271;DHT22;4673;53.458;9.940;2022-08-07T15:52:02;21.70;33.90
9271;DHT22;4673;53.458;9.940;2022-08-07T15:54:35;21.60;34.50
9271;DHT22;4673;53.458;9.940;2022-08-07T15:57:03;21.60;35.60
9271;DHT22;4673;53.458;9.940;2022-08-07T15:59:29;21.50;33.80
9271;DHT22;4673;53.458;9.940;2022-08-07T16:01:55;21.40;34.30
9271;DHT22;4673;53.458;9.940;2022-08-07T16:04:28;21.40;34.70
9271;DHT22;4673;53.458;9.940;2022-08-07T16:06:57;21.40;35.10
9271;DHT22;4673;53.458;9.940;2022-08-07T16:09:48;21.50;35.50
9271;DHT22;4673;53.458;9.940;2022-08-07T16:15:49;21.50;34.70
9271;DHT22;4673;53.458;9.940;2022-08-07T16:29:01;21.30;35.20
9271;DHT22;4673;53.458;9.940;2022-08-07T16:31:40;21.30;35.50
9271;DHT22;4673;53.458;9.940;2022-08-07T16:34:28;21.30;36.20
9271;DHT22;4673;53.458;9.940;2022-08-07T16:42:41;21.30;35.00
9271;DHT22;4673;53.458;9.940;2022-08-07T16:45:40;21.30;34.70
9271;DHT22;4673;53.458;9.940;2022-08-07T16:51:32;21.00;35.50
9271;DHT22;4673;53.458;9.940;2022-08-07T17:04:33;20.90;37.00
9271;DHT22;4673;53.458;9.940;2022-08-07T17:07:20;20.70;37.40
9271;DHT22;4673;53.458;9.940;2022-08-07T17:10:07;20.70;38.30
9271;DHT22;4673;53.458;9.940;2022-08-07T17:15:37;20.80;38.80
9271;DHT22;4673;53.458;9.940;2022-08-07T17:18:18;20.80;37.40
9271;DHT22;4673;53.458;9.940;2022-08-07T17:20:48;20.70;37.30
9271;DHT22;4673;53.458;9.940;2022-08-07T17:26:24;20.70;38.30
9271;DHT22;4673;53.458;9.940;2022-08-07T17:29:11;20.70;38.10
9271;DHT22;4673;53.458;9.940;2022-08-07T17:36:53;20.70;39.30
9271;DHT22;4673;53.458;9.940;2022-08-07T17:39:45;20.70;38.90
9271;DHT22;4673;53.458;9.940;2022-08-07T17:44:55;20.60;39.40
9271;DHT22;4673;53.458;9.940;2022-08-07T17:50:20;20.50;39.80
9271;DHT22;4673;53.458;9.940;2022-08-07T17:55:36;20.40;39.80
9271;DHT22;4673;53.458;9.940;2022-08-07T17:58:08;20.30;40.50
9271;DHT22;4673;53.458;9.940;2022-08-07T18:00:38;20.30;40.90
9271;DHT22;4673;53.458;9.940;2022-08-07T18:03:12;20.30;41.60
9271;DHT22;4673;53.458;9.940;2022-08-07T18:06:08;20.10;43.10
9271;DHT22;4673;53.458;9.940;2022-08-07T18:13:53;19.70;45.60
9271;DHT22;4673;53.458;9.940;2022-08-07T18:16:39;19.50;46.20
9271;DHT22;4673;53.458;9.940;2022-08-07T18:19:20;19.40;47.20
9271;DHT22;4673;53.458;9.940;2022-08-07T18:30:04;18.90;50.10
9271;DHT22;4673;53.458;9.940;2022-08-07T18:38:42;18.90;51.10
9271;DHT22;4673;53.458;9.940;2022-08-07T18:44:37;18.70;52.20
9271;DHT22;4673;53.458;9.940;2022-08-07T18:52:33;18.40;53.10
9271;DHT22;4673;53.458;9.940;2022-08-07T18:55:32;18.30;53.50
9271;DHT22;4673;53.458;9.940;2022-08-07T18:58:24;18.30;54.50
9271;DHT22;4673;53.458;9.940;2022-08-07T19:07:00;17.90;56.00
9271;DHT22;4673;53.458;9.940;2022-08-07T19:09:41;17.80;56.40
9271;DHT22;4673;53.458;9.940;2022-08-07T19:15:17;17.60;57.50
9271;DHT22;4673;53.458;9.940;2022-08-07T19:18:13;17.50;58.00
9271;DHT22;4673;53.458;9.940;2022-08-07T19:21:02;17.40;58.70
9271;DHT22;4673;53.458;9.940;2022-08-07T19:23:52;17.30;59.80
9271;DHT22;4673;53.458;9.940;2022-08-07T19:26:23;17.20;59.90
9271;DHT22;4673;53.458;9.940;2022-08-07T19:28:53;17.20;59.90
9271;DHT22;4673;53.458;9.940;2022-08-07T19:31:24;17.00;60.40
9271;DHT22;4673;53.458;9.940;2022-08-07T19:33:51;16.90;61.20
9271;DHT22;4673;53.458;9.940;2022-08-07T19:36:17;16.90;61.70
9271;DHT22;4673;53.458;9.940;2022-08-07T19:38:47;16.80;62.00
9271;DHT22;4673;53.458;9.940;2022-08-07T19:41:18;16.70;62.50
9271;DHT22;4673;53.458;9.940;2022-08-07T19:43:46;16.60;62.90
9271;DHT22;4673;53.458;9.940;2022-08-07T19:46:14;16.50;63.50
9271;DHT22;4673;53.458;9.940;2022-08-07T19:48:47;16.40;64.20
9271;DHT22;4673;53.458;9.940;2022-08-07T19:51:17;16.30;64.50
9271;DHT22;4673;53.458;9.940;2022-08-07T19:53:52;16.20;64.90
9271;DHT22;4673;53.458;9.940;2022-08-07T19:56:21;16.20;65.70
9271;DHT22;4673;53.458;9.940;2022-08-07T19:58:48;16.10;65.70
9271;DHT22;4673;53.458;9.940;2022-08-07T20:01:15;16.00;66.20
9271;DHT22;4673;53.458;9.940;2022-08-07T20:03:43;16.00;67.10
9271;DHT22;4673;53.458;9.940;2022-08-07T20:06:11;15.90;67.70
9271;DHT22;4673;53.458;9.940;2022-08-07T20:08:39;15.80;68.50
9271;DHT22;4673;53.458;9.940;2022-08-07T20:11:10;15.80;68.90
9271;DHT22;4673;53.458;9.940;2022-08-07T20:13:45;15.70;69.10
9271;DHT22;4673;53.458;9.940;2022-08-07T20:16:18;15.60;69.60
9271;DHT22;4673;53.458;9.940;2022-08-07T20:18:45;15.60;70.10
9271;DHT22;4673;53.458;9.940;2022-08-07T20:21:12;15.50;70.70
9271;DHT22;4673;53.458;9.940;2022-08-07T20:23:54;15.40;71.10